createdAt,value
2023-01-09T00:00:33.577Z,10.77
2023-01-09T00:03:35.252Z,10.57
2023-01-09T00:06:37.501Z,10.20
2023-01-09T00:09:39.326Z,10.63
2023-01-09T00:12:41.601Z,11.17
2023-01-09T00:15:43.495Z,10.55
2023-01-09T00:18:45.395Z,10.98
2023-01-09T00:21:47.222Z,10.30
2023-01-09T00:24:48.853Z,10.90
2023-01-09T00:27:50.597Z,10.40
2023-01-09T00:31:00.021Z,9.27
2023-01-09T00:34:06.155Z,9.55
2023-01-09T00:37:11.886Z,10.50
2023-01-09T00:40:15.401Z,10.63
2023-01-09T00:43:18.577Z,9.83
2023-01-09T00:46:25.511Z,9.93
2023-01-09T00:49:35.842Z,10.48
2023-01-09T00:52:38.812Z,10.50
2023-01-09T00:55:40.847Z,9.50
2023-01-09T00:58:43.285Z,9.27
2023-01-09T01:01:45.186Z,9.65
2023-01-09T01:05:05.297Z,9.23
2023-01-09T01:08:11.459Z,8.55
2023-01-09T01:11:13.604Z,8.43
2023-01-09T01:14:15.271Z,9.03
2023-01-09T01:17:17.001Z,8.80
2023-01-09T01:20:19.303Z,8.88
2023-01-09T01:23:20.960Z,7.55
2023-01-09T01:26:22.618Z,7.75
2023-01-09T01:29:24.341Z,9.03
2023-01-09T01:32:26.023Z,8.25
2023-01-09T01:35:27.822Z,8.40
2023-01-09T01:38:29.905Z,7.80
2023-01-09T01:41:32.505Z,8.07
2023-01-09T01:44:55.811Z,8.90
2023-01-09T01:48:00.192Z,8.45
2023-01-09T01:51:05.993Z,8.15
2023-01-09T01:54:14.502Z,8.23
2023-01-09T01:57:16.489Z,7.70
2023-01-09T02:00:23.190Z,7.67
2023-01-09T02:03:27.361Z,8.65
2023-01-09T02:06:30.476Z,8.05
2023-01-09T02:09:32.345Z,7.82
2023-01-09T02:12:34.115Z,7.38
2023-01-09T02:15:46.253Z,7.30
2023-01-09T02:19:20.363Z,8.57
2023-01-09T02:22:30.916Z,8.25
2023-01-09T02:26:10.237Z,8.50
2023-01-09T02:29:36.142Z,6.45
2023-01-09T02:33:06.159Z,8.30
2023-01-09T02:36:19.023Z,8.68
2023-01-09T02:39:51.114Z,8.13
2023-01-09T02:42:57.350Z,8.13
2023-01-09T02:45:59.295Z,8.75
2023-01-09T02:49:01.179Z,8.97
2023-01-09T02:52:11.765Z,7.35
2023-01-09T02:55:35.274Z,8.75
2023-01-09T02:58:55.498Z,7.70
2023-01-09T03:01:59.963Z,8.20
2023-01-09T03:05:11.403Z,8.07
2023-01-09T03:08:21.050Z,8.38
2023-01-09T03:11:28.336Z,8.70
2023-01-09T03:14:33.492Z,8.57
2023-01-09T03:17:40.257Z,7.63
2023-01-09T03:20:42.905Z,7.40
2023-01-09T03:23:49.547Z,8.98
2023-01-09T03:26:51.493Z,8.13
2023-01-09T03:29:53.453Z,8.13
2023-01-09T03:32:56.190Z,9.40
2023-01-09T03:35:57.941Z,8.80
2023-01-09T03:38:59.637Z,8.85
2023-01-09T03:42:01.435Z,8.88
2023-01-09T03:45:03.890Z,7.55
2023-01-09T03:48:05.786Z,8.43
2023-01-09T03:51:07.446Z,9.33
2023-01-09T03:54:09.551Z,9.65
2023-01-09T03:57:11.233Z,8.82
2023-01-09T04:00:13.524Z,9.10
2023-01-09T04:03:16.224Z,9.20
2023-01-09T04:06:18.084Z,9.40
2023-01-09T04:09:20.057Z,9.13
2023-01-09T04:12:21.735Z,9.02
2023-01-09T04:15:23.878Z,8.85
2023-01-09T04:18:25.629Z,8.63
2023-01-09T04:21:27.623Z,8.60
2023-01-09T04:24:29.347Z,8.95
2023-01-09T04:27:31.240Z,8.80
2023-01-09T04:30:33.433Z,8.48
2023-01-09T04:33:35.137Z,9.77
2023-01-09T04:36:36.848Z,8.53
2023-01-09T04:39:38.532Z,7.55
2023-01-09T04:42:41.201Z,8.77
2023-01-09T04:45:42.900Z,8.35
2023-01-09T04:48:44.776Z,8.52
2023-01-09T04:51:47.197Z,8.77
2023-01-09T04:54:48.931Z,8.80
2023-01-09T04:57:50.677Z,8.52
2023-01-09T05:00:52.617Z,9.27
2023-01-09T05:03:54.336Z,9.75
2023-01-09T05:06:56.099Z,8.43
2023-01-09T05:09:57.761Z,8.82
2023-01-09T05:12:59.455Z,9.43
2023-01-09T05:16:01.110Z,9.10
2023-01-09T05:19:03.139Z,9.85
2023-01-09T05:22:05.117Z,9.10
2023-01-09T05:25:07.122Z,9.88
2023-01-09T05:28:08.919Z,9.27
2023-01-09T05:31:10.784Z,9.10
2023-01-09T05:34:12.480Z,9.77
2023-01-09T05:37:14.159Z,9.83
2023-01-09T05:40:16.074Z,9.60
2023-01-09T05:43:17.727Z,10.05
2023-01-09T05:46:19.450Z,9.90
2023-01-09T05:49:21.157Z,9.25
2023-01-09T05:52:24.802Z,9.70
2023-01-09T05:59:29.425Z,10.25
2023-01-09T06:02:31.435Z,9.52
2023-01-09T06:05:33.876Z,9.80
2023-01-09T06:08:35.711Z,11.37
2023-01-09T06:11:44.250Z,12.05
2023-01-09T06:14:47.420Z,10.90
2023-01-09T06:17:49.358Z,12.18
2023-01-09T06:20:56.447Z,12.70
2023-01-09T06:23:59.378Z,9.97
2023-01-09T06:27:01.034Z,11.20
2023-01-09T06:30:02.982Z,12.18
2023-01-09T06:33:05.782Z,12.15
2023-01-09T06:36:07.999Z,9.73
2023-01-09T06:39:09.735Z,11.27
2023-01-09T06:42:11.430Z,9.82
2023-01-09T06:45:13.842Z,10.45
2023-01-09T06:48:15.701Z,11.15
2023-01-09T06:51:17.382Z,11.35
2023-01-09T06:54:19.771Z,11.27
2023-01-09T06:57:21.527Z,9.98
2023-01-09T07:00:23.470Z,11.57
2023-01-09T07:03:25.330Z,11.00
2023-01-09T07:06:27.484Z,9.85
2023-01-09T07:09:29.291Z,9.93
2023-01-09T07:12:31.033Z,11.10
2023-01-09T07:15:33.595Z,10.68
2023-01-09T07:18:35.574Z,11.60
2023-01-09T07:21:38.025Z,10.55
2023-01-09T07:24:39.823Z,10.33
2023-01-09T07:27:42.326Z,11.20
2023-01-09T07:30:44.077Z,13.38
2023-01-09T07:33:45.777Z,13.85
2023-01-09T07:36:48.957Z,11.68
2023-01-09T07:39:51.736Z,10.57
2023-01-09T07:42:54.006Z,10.60
2023-01-09T07:45:55.743Z,9.98
2023-01-09T07:48:57.650Z,11.27
2023-01-09T07:51:59.336Z,9.60
2023-01-09T07:55:01.541Z,12.00
2023-01-09T07:58:03.281Z,11.32
2023-01-09T08:01:05.128Z,11.45
2023-01-09T08:04:07.109Z,12.35
2023-01-09T08:07:08.983Z,10.55
2023-01-09T08:10:11.533Z,11.33
2023-01-09T08:13:13.208Z,10.30
2023-01-09T08:16:15.193Z,9.93
2023-01-09T08:19:16.866Z,11.50
2023-01-09T08:22:19.157Z,12.07
2023-01-09T08:25:21.420Z,11.63
2023-01-09T08:28:23.190Z,10.30
2023-01-09T08:31:25.178Z,10.77
2023-01-09T08:34:27.005Z,10.95
2023-01-09T08:37:28.779Z,10.95
2023-01-09T08:40:30.628Z,10.67
2023-01-09T08:43:50.771Z,10.00
2023-01-09T08:47:08.529Z,10.00
2023-01-09T08:50:10.538Z,11.40
2023-01-09T08:53:12.816Z,10.65
2023-01-09T08:56:14.446Z,10.63
2023-01-09T08:59:16.672Z,11.57
2023-01-09T09:02:18.445Z,11.85
2023-01-09T09:05:20.827Z,11.65
2023-01-09T09:08:22.524Z,9.68
2023-01-09T09:11:24.195Z,10.83
2023-01-09T09:14:45.128Z,10.63
2023-01-09T09:18:00.587Z,9.25
2023-01-09T09:21:02.365Z,10.60
2023-01-09T09:24:04.160Z,10.05
2023-01-09T09:27:05.820Z,11.10
2023-01-09T09:30:09.014Z,10.30
2023-01-09T09:33:10.797Z,10.52
2023-01-09T09:36:12.447Z,11.23
2023-01-09T09:39:15.155Z,11.00
2023-01-09T09:43:11.043Z,10.73
2023-01-09T09:46:23.226Z,10.45
2023-01-09T09:49:33.828Z,11.27
2023-01-09T09:53:09.433Z,8.45
2023-01-09T09:56:13.923Z,11.07
2023-01-09T09:59:27.161Z,11.33
2023-01-09T10:02:39.542Z,10.48
2023-01-09T10:05:45.586Z,12.02
2023-01-09T10:09:09.089Z,11.23
2023-01-09T10:12:25.260Z,12.40
2023-01-09T10:15:55.745Z,11.67
2023-01-09T10:19:06.398Z,10.73
2023-01-09T10:22:37.218Z,11.80
2023-01-09T10:25:51.017Z,11.23
2023-01-09T10:29:11.432Z,11.05
2023-01-09T10:32:37.880Z,8.40
2023-01-09T10:35:58.554Z,10.95
2023-01-09T10:39:08.406Z,11.73
2023-01-09T10:42:11.289Z,11.85
2023-01-09T10:45:34.910Z,10.30
2023-01-09T10:48:45.508Z,11.00
2023-01-09T10:51:50.414Z,9.70
2023-01-09T10:54:58.144Z,11.05
2023-01-09T10:58:04.356Z,11.60
2023-01-09T11:01:07.814Z,12.32
2023-01-09T11:04:23.500Z,11.40
2023-01-09T11:07:30.354Z,11.57
2023-01-09T11:10:49.586Z,11.27
2023-01-09T11:14:04.678Z,10.40
2023-01-09T11:17:16.822Z,11.85
2023-01-09T11:20:28.152Z,11.43
2023-01-09T11:23:32.581Z,11.73
2023-01-09T11:26:35.150Z,11.82
2023-01-09T11:29:36.839Z,11.18
2023-01-09T11:32:38.593Z,11.13
2023-01-09T11:35:54.391Z,12.43
2023-01-09T11:38:58.669Z,12.02
2023-01-09T11:42:03.334Z,15.60
2023-01-09T11:45:05.516Z,11.20
2023-01-09T11:48:17.883Z,11.75
2023-01-09T11:51:23.238Z,10.93
2023-01-09T11:54:28.723Z,10.85
2023-01-09T11:57:31.374Z,26.98
2023-01-09T12:00:44.295Z,17.73
